sensor_id;sensor_type;location;lat;lon;timestamp;pressure;altitude;pressure_sealevel;temperature;humidity
41945;BME280;63122;52.424;13.458;2022-12-13T00:02:08;100586.47;;;-2.23;72.20
41945;BME280;63122;52.424;13.458;2022-12-13T00:04:57;100585.19;;;-2.33;72.26
41945;BME280;63122;52.424;13.458;2022-12-13T00:08:02;100587.28;;;-2.22;72.89
41945;BME280;63122;52.424;13.458;2022-12-13T00:10:46;100590.16;;;-2.28;72.04
41945;BME280;63122;52.424;13.458;2022-12-13T00:13:24;100581.22;;;-2.21;72.22
41945;BME280;63122;52.424;13.458;2022-12-13T00:15:56;100577.59;;;-2.36;73.33
41945;BME280;63122;52.424;13.458;2022-12-13T00:18:30;100583.09;;;-2.44;73.85
41945;BME280;63122;52.424;13.458;2022-12-13T00:21:03;100573.81;;;-2.29;73.59
41945;BME280;63122;52.424;13.458;2022-12-13T00:23:35;100569.13;;;-2.40;74.20
41945;BME280;63122;52.424;13.458;2022-12-13T00:26:34;100564.88;;;-2.41;74.28
41945;BME280;63122;52.424;13.458;2022-12-13T00:29:10;100565.44;;;-2.34;74.55
41945;BME280;63122;52.424;13.458;2022-12-13T00:31:42;100563.97;;;-2.40;74.48
41945;BME280;63122;52.424;13.458;2022-12-13T00:34:26;100560.13;;;-2.31;74.34
41945;BME280;63122;52.424;13.458;2022-12-13T00:37:03;100554.19;;;-2.33;74.13
41945;BME280;63122;52.424;13.458;2022-12-13T00:39:46;100555.81;;;-2.30;74.13
41945;BME280;63122;52.424;13.458;2022-12-13T00:42:31;100547.63;;;-2.40;74.33
41945;BME280;63122;52.424;13.458;2022-12-13T00:45:09;100553.28;;;-2.32;74.39
41945;BME280;63122;52.424;13.458;2022-12-13T00:47:45;100542.31;;;-2.37;74.72
41945;BME280;63122;52.424;13.458;2022-12-13T00:50:17;100547.16;;;-2.29;74.62
41945;BME280;63122;52.424;13.458;2022-12-13T00:52:54;100543.03;;;-2.34;75.27
41945;BME280;63122;52.424;13.458;2022-12-13T00:55:27;100543.03;;;-2.34;75.21
41945;BME280;63122;52.424;13.458;2022-12-13T00:58:17;100536.25;;;-2.36;75.71
41945;BME280;63122;52.424;13.458;2022-12-13T01:01:02;100538.50;;;-2.48;76.27
41945;BME280;63122;52.424;13.458;2022-12-13T01:06:48;100547.84;;;-2.45;75.77
41945;BME280;63122;52.424;13.458;2022-12-13T01:09:23;100553.72;;;-2.41;75.64
41945;BME280;63122;52.424;13.458;2022-12-13T01:12:00;100549.94;;;-2.53;74.83
41945;BME280;63122;52.424;13.458;2022-12-13T01:14:38;100548.06;;;-2.50;75.05
41945;BME280;63122;52.424;13.458;2022-12-13T01:17:09;100548.97;;;-2.51;75.31
41945;BME280;63122;52.424;13.458;2022-12-13T01:19:40;100545.50;;;-2.50;75.23
41945;BME280;63122;52.424;13.458;2022-12-13T01:22:11;100548.91;;;-2.49;74.08
41945;BME280;63122;52.424;13.458;2022-12-13T01:24:41;100548.00;;;-2.48;74.42
41945;BME280;63122;52.424;13.458;2022-12-13T01:27:11;100553.16;;;-2.48;74.54
41945;BME280;63122;52.424;13.458;2022-12-13T01:29:45;100546.66;;;-2.57;75.36
41945;BME280;63122;52.424;13.458;2022-12-13T01:32:15;100546.13;;;-2.44;74.73
41945;BME280;63122;52.424;13.458;2022-12-13T01:34:47;100542.91;;;-2.50;74.85
41945;BME280;63122;52.424;13.458;2022-12-13T01:37:17;100547.38;;;-2.53;75.42
41945;BME280;63122;52.424;13.458;2022-12-13T01:39:52;100540.88;;;-2.62;77.03
41945;BME280;63122;52.424;13.458;2022-12-13T01:42:24;100541.44;;;-2.55;77.19
41945;BME280;63122;52.424;13.458;2022-12-13T01:45:08;100545.69;;;-2.54;77.43
41945;BME280;63122;52.424;13.458;2022-12-13T01:48:13;100542.25;;;-2.55;77.66
41945;BME280;63122;52.424;13.458;2022-12-13T01:50:50;100546.47;;;-2.52;77.67
41945;BME280;63122;52.424;13.458;2022-12-13T01:53:31;100541.75;;;-2.44;77.63
41945;BME280;63122;52.424;13.458;2022-12-13T01:56:46;100528.03;;;-2.64;78.83
41945;BME280;63122;52.424;13.458;2022-12-13T01:59:27;100529.19;;;-2.52;78.92
41945;BME280;63122;52.424;13.458;2022-12-13T02:02:00;100530.25;;;-2.56;79.21
41945;BME280;63122;52.424;13.458;2022-12-13T02:04:36;100534.31;;;-2.50;79.08
41945;BME280;63122;52.424;13.458;2022-12-13T02:07:12;100520.81;;;-2.57;78.89
41945;BME280;63122;52.424;13.458;2022-12-13T02:09:50;100528.09;;;-2.46;77.96
41945;BME280;63122;52.424;13.458;2022-12-13T02:12:23;100531.91;;;-2.55;77.46
41945;BME280;63122;52.424;13.458;2022-12-13T02:14:57;100532.91;;;-2.57;77.03
41945;BME280;63122;52.424;13.458;2022-12-13T02:17:37;100528.22;;;-2.49;76.16
41945;BME280;63122;52.424;13.458;2022-12-13T02:20:41;100530.09;;;-2.53;76.58
41945;BME280;63122;52.424;13.458;2022-12-13T02:23:26;100532.69;;;-2.53;76.66
41945;BME280;63122;52.424;13.458;2022-12-13T02:26:24;100534.88;;;-2.43;76.69
41945;BME280;63122;52.424;13.458;2022-12-13T02:29:09;100531.25;;;-2.58;77.91
41945;BME280;63122;52.424;13.458;2022-12-13T02:32:03;100530.09;;;-2.53;78.37
41945;BME280;63122;52.424;13.458;2022-12-13T02:34:43;100527.75;;;-2.57;79.87
41945;BME280;63122;52.424;13.458;2022-12-13T02:37:23;100522.44;;;-2.54;80.40
41945;BME280;63122;52.424;13.458;2022-12-13T02:39:57;100528.44;;;-2.54;80.79
41945;BME280;63122;52.424;13.458;2022-12-13T02:42:35;100522.94;;;-2.65;81.54
41945;BME280;63122;52.424;13.458;2022-12-13T02:45:10;100513.84;;;-2.74;82.42
41945;BME280;63122;52.424;13.458;2022-12-13T02:47:51;100519.16;;;-2.77;83.08
41945;BME280;63122;52.424;13.458;2022-12-13T02:50:24;100520.34;;;-2.65;83.08
41945;BME280;63122;52.424;13.458;2022-12-13T02:52:57;100511.59;;;-2.82;84.20
41945;BME280;63122;52.424;13.458;2022-12-13T02:55:28;100519.63;;;-2.69;84.39
41945;BME280;63122;52.424;13.458;2022-12-13T02:58:02;100512.88;;;-2.71;84.56
41945;BME280;63122;52.424;13.458;2022-12-13T03:00:41;100512.59;;;-2.65;84.35
41945;BME280;63122;52.424;13.458;2022-12-13T03:03:24;100516.38;;;-2.72;84.57
41945;BME280;63122;52.424;13.458;2022-12-13T03:06:10;100513.78;;;-2.72;84.53
41945;BME280;63122;52.424;13.458;2022-12-13T03:09:09;100516.03;;;-2.65;84.23
41945;BME280;63122;52.424;13.458;2022-12-13T03:11:52;100513.38;;;-2.63;84.12
41945;BME280;63122;52.424;13.458;2022-12-13T03:14:45;100515.47;;;-2.71;84.17
41945;BME280;63122;52.424;13.458;2022-12-13T03:17:17;100511.63;;;-2.63;83.89
41945;BME280;63122;52.424;13.458;2022-12-13T03:19:53;100510.56;;;-2.58;84.10
41945;BME280;63122;52.424;13.458;2022-12-13T03:22:23;100505.75;;;-2.66;84.50
41945;BME280;63122;52.424;13.458;2022-12-13T03:24:54;100509.94;;;-2.83;84.93
41945;BME280;63122;52.424;13.458;2022-12-13T03:27:24;100505.28;;;-2.75;85.43
41945;BME280;63122;52.424;13.458;2022-12-13T03:29:54;100498.63;;;-2.80;85.43
41945;BME280;63122;52.424;13.458;2022-12-13T03:32:24;100506.19;;;-2.76;85.53
41945;BME280;63122;52.424;13.458;2022-12-13T03:34:57;100498.63;;;-2.80;85.86
41945;BME280;63122;52.424;13.458;2022-12-13T03:37:28;100496.06;;;-2.80;86.29
41945;BME280;63122;52.424;13.458;2022-12-13T03:39:58;100494.56;;;-2.67;86.11
41945;BME280;63122;52.424;13.458;2022-12-13T03:42:28;100495.56;;;-2.69;86.21
41945;BME280;63122;52.424;13.458;2022-12-13T03:44:59;100491.59;;;-2.77;86.80
41945;BME280;63122;52.424;13.458;2022-12-13T03:47:29;100489.84;;;-2.76;86.99
41945;BME280;63122;52.424;13.458;2022-12-13T03:50:03;100489.84;;;-2.76;86.85
41945;BME280;63122;52.424;13.458;2022-12-13T03:52:57;100493.03;;;-2.71;86.12
41945;BME280;63122;52.424;13.458;2022-12-13T03:55:28;100485.25;;;-2.69;86.49
41945;BME280;63122;52.424;13.458;2022-12-13T03:57:58;100486.78;;;-2.65;86.18
41945;BME280;63122;52.424;13.458;2022-12-13T04:00:34;100487.88;;;-2.71;86.04
41945;BME280;63122;52.424;13.458;2022-12-13T04:03:04;100485.44;;;-2.74;85.63
41945;BME280;63122;52.424;13.458;2022-12-13T04:05:37;100492.63;;;-2.81;86.11
41945;BME280;63122;52.424;13.458;2022-12-13T04:08:10;100487.25;;;-2.76;86.73
41945;BME280;63122;52.424;13.458;2022-12-13T04:10:49;100486.63;;;-2.81;86.37
41945;BME280;63122;52.424;13.458;2022-12-13T04:13:19;100492.50;;;-2.78;85.76
41945;BME280;63122;52.424;13.458;2022-12-13T04:15:59;100483.84;;;-2.77;86.46
41945;BME280;63122;52.424;13.458;2022-12-13T04:18:30;100481.91;;;-2.71;85.76
41945;BME280;63122;52.424;13.458;2022-12-13T04:21:05;100489.97;;;-2.60;85.41
41945;BME280;63122;52.424;13.458;2022-12-13T04:23:35;100490.13;;;-2.63;85.78
41945;BME280;63122;52.424;13.458;2022-12-13T04:26:09;100488.31;;;-2.61;85.80
41945;BME280;63122;52.424;13.458;2022-12-13T04:28:39;100490.25;;;-2.66;86.10
41945;BME280;63122;52.424;13.458;2022-12-13T04:31:13;100495.84;;;-2.56;85.75
41945;BME280;63122;52.424;13.458;2022-12-13T04:33:43;100494.22;;;-2.59;85.79
41945;BME280;63122;52.424;13.458;2022-12-13T04:36:17;100487.38;;;-2.60;85.04
41945;BME280;63122;52.424;13.458;2022-12-13T04:38:59;100488.88;;;-2.73;85.40
41945;BME280;63122;52.424;13.458;2022-12-13T04:41:50;100487.34;;;-2.58;85.47
41945;BME280;63122;52.424;13.458;2022-12-13T04:44:21;100493.56;;;-2.63;85.56
41945;BME280;63122;52.424;13.458;2022-12-13T04:46:57;100493.56;;;-2.63;85.34
41945;BME280;63122;52.424;13.458;2022-12-13T04:49:29;100497.88;;;-2.63;85.45
41945;BME280;63122;52.424;13.458;2022-12-13T04:52:05;100492.22;;;-2.71;85.83
41945;BME280;63122;52.424;13.458;2022-12-13T04:54:36;100494.19;;;-2.77;85.56
41945;BME280;63122;52.424;13.458;2022-12-13T04:57:07;100497.38;;;-2.71;85.65
41945;BME280;63122;52.424;13.458;2022-12-13T04:59:39;100494.09;;;-2.75;85.77
41945;BME280;63122;52.424;13.458;2022-12-13T05:02:13;100503.31;;;-2.69;86.12
41945;BME280;63122;52.424;13.458;2022-12-13T05:04:50;100499.81;;;-2.68;85.83
41945;BME280;63122;52.424;13.458;2022-12-13T05:07:24;100500.53;;;-2.65;85.38
41945;BME280;63122;52.424;13.458;2022-12-13T05:09:54;100503.47;;;-2.72;85.37
41945;BME280;63122;52.424;13.458;2022-12-13T05:12:25;100497.59;;;-2.76;84.86
41945;BME280;63122;52.424;13.458;2022-12-13T05:14:55;100500.78;;;-2.71;85.13
41945;BME280;63122;52.424;13.458;2022-12-13T05:17:25;100501.94;;;-2.77;84.69
41945;BME280;63122;52.424;13.458;2022-12-13T05:19:55;100500.16;;;-2.76;84.89
41945;BME280;63122;52.424;13.458;2022-12-13T05:22:28;100498.78;;;-2.64;84.69
41945;BME280;63122;52.424;13.458;2022-12-13T05:24:58;100496.13;;;-2.63;84.63
41945;BME280;63122;52.424;13.458;2022-12-13T05:27:30;100499.88;;;-2.70;84.95
41945;BME280;63122;52.424;13.458;2022-12-13T05:30:00;100498.69;;;-2.82;84.69
41945;BME280;63122;52.424;13.458;2022-12-13T05:32:32;100496.81;;;-2.78;85.10
41945;BME280;63122;52.424;13.458;2022-12-13T05:35:11;100489.84;;;-2.76;84.55
41945;BME280;63122;52.424;13.458;2022-12-13T05:37:53;100492.63;;;-2.81;84.85
41945;BME280;63122;52.424;13.458;2022-12-13T05:40:23;100493.19;;;-2.74;84.52
41945;BME280;63122;52.424;13.458;2022-12-13T05:42:54;100493.13;;;-2.72;84.30
41945;BME280;63122;52.424;13.458;2022-12-13T05:45:27;100488.59;;;-2.67;84.13
41945;BME280;63122;52.424;13.458;2022-12-13T05:47:59;100492.91;;;-2.68;84.00
41945;BME280;63122;52.424;13.458;2022-12-13T05:50:29;100494.47;;;-2.64;84.05
41945;BME280;63122;52.424;13.458;2022-12-13T05:53:02;100492.84;;;-2.66;84.06
41945;BME280;63122;52.424;13.458;2022-12-13T05:55:36;100489.34;;;-2.65;84.54
41945;BME280;63122;52.424;13.458;2022-12-13T05:58:07;100494.03;;;-2.73;84.57
41945;BME280;63122;52.424;13.458;2022-12-13T06:00:49;100492.84;;;-2.85;85.44
41945;BME280;63122;52.424;13.458;2022-12-13T06:03:19;100497.94;;;-2.84;85.94
41945;BME280;63122;52.424;13.458;2022-12-13T06:05:50;100494.19;;;-2.77;85.48
41945;BME280;63122;52.424;13.458;2022-12-13T06:08:23;100492.84;;;-2.85;85.53
41945;BME280;63122;52.424;13.458;2022-12-13T06:10:53;100491.19;;;-2.86;85.79
41945;BME280;63122;52.424;13.458;2022-12-13T06:13:40;100485.25;;;-2.88;86.15
41945;BME280;63122;52.424;13.458;2022-12-13T06:16:11;100496.69;;;-2.94;86.11
41945;BME280;63122;52.424;13.458;2022-12-13T06:18:50;100499.75;;;-2.86;86.24
41945;BME280;63122;52.424;13.458;2022-12-13T06:21:30;100495.50;;;-2.87;86.15
41945;BME280;63122;52.424;13.458;2022-12-13T06:24:17;100503.22;;;-2.87;86.41
41945;BME280;63122;52.424;13.458;2022-12-13T06:26:47;100497.31;;;-2.89;86.52
41945;BME280;63122;52.424;13.458;2022-12-13T06:29:19;100505.38;;;-2.97;86.94
41945;BME280;63122;52.424;13.458;2022-12-13T06:31:54;100515.50;;;-2.92;87.24
41945;BME280;63122;52.424;13.458;2022-12-13T06:34:31;100503.56;;;-2.95;86.96
41945;BME280;63122;52.424;13.458;2022-12-13T06:37:04;100500.31;;;-2.98;86.98
41945;BME280;63122;52.424;13.458;2022-12-13T06:39:37;100504.28;;;-3.10;87.39
41945;BME280;63122;52.424;13.458;2022-12-13T06:42:14;100519.41;;;-3.02;87.20
41945;BME280;63122;52.424;13.458;2022-12-13T06:44:49;100522.16;;;-3.06;87.34
41945;BME280;63122;52.424;13.458;2022-12-13T06:47:23;100515.16;;;-3.04;87.22
41945;BME280;63122;52.424;13.458;2022-12-13T06:49:58;100520.06;;;-2.97;87.31
41945;BME280;63122;52.424;13.458;2022-12-13T06:52:32;100520.19;;;-3.00;87.28
41945;BME280;63122;52.424;13.458;2022-12-13T06:55:06;100526.19;;;-3.00;87.45
41945;BME280;63122;52.424;13.458;2022-12-13T06:57:36;100526.13;;;-2.98;87.56
41945;BME280;63122;52.424;13.458;2022-12-13T07:00:08;100532.88;;;-2.96;87.72
41945;BME280;63122;52.424;13.458;2022-12-13T07:02:39;100529.75;;;-3.02;87.88
41945;BME280;63122;52.424;13.458;2022-12-13T07:05:09;100537.69;;;-3.07;87.91
41945;BME280;63122;52.424;13.458;2022-12-13T07:07:39;100534.56;;;-2.95;87.38
41945;BME280;63122;52.424;13.458;2022-12-13T07:10:12;100541.66;;;-3.00;87.48
41945;BME280;63122;52.424;13.458;2022-12-13T07:12:48;100541.31;;;-3.11;87.73
41945;BME280;63122;52.424;13.458;2022-12-13T07:15:19;100540.97;;;-3.04;87.49
41945;BME280;63122;52.424;13.458;2022-12-13T07:17:49;100534.00;;;-3.01;87.31
41945;BME280;63122;52.424;13.458;2022-12-13T07:20:20;100535.88;;;-3.05;87.27
41945;BME280;63122;52.424;13.458;2022-12-13T07:22:50;100543.34;;;-2.99;87.07
41945;BME280;63122;52.424;13.458;2022-12-13T07:25:28;100538.03;;;-2.96;87.10
41945;BME280;63122;52.424;13.458;2022-12-13T07:27:58;100543.63;;;-2.86;87.01
41945;BME280;63122;52.424;13.458;2022-12-13T07:30:31;100551.03;;;-2.97;87.21
41945;BME280;63122;52.424;13.458;2022-12-13T07:33:07;100544.09;;;-2.97;87.17
41945;BME280;63122;52.424;13.458;2022-12-13T07:35:38;100544.88;;;-2.95;87.33
41945;BME280;63122;52.424;13.458;2022-12-13T07:38:10;100556.25;;;-2.99;87.42
41945;BME280;63122;52.424;13.458;2022-12-13T07:40:43;100556.25;;;-2.99;87.71
41945;BME280;63122;52.424;13.458;2022-12-13T07:43:13;100550.19;;;-2.98;87.87
41945;BME280;63122;52.424;13.458;2022-12-13T07:45:44;100552.84;;;-2.99;87.74
41945;BME280;63122;52.424;13.458;2022-12-13T07:48:14;100553.41;;;-2.93;87.58
41945;BME280;63122;52.424;13.458;2022-12-13T07:50:44;100554.53;;;-2.98;87.67
41945;BME280;63122;52.424;13.458;2022-12-13T07:53:20;100555.19;;;-2.95;87.62
41945;BME280;63122;52.424;13.458;2022-12-13T07:55:53;100552.84;;;-2.99;87.87
41945;BME280;63122;52.424;13.458;2022-12-13T07:58:24;100568.53;;;-3.04;88.14
41945;BME280;63122;52.424;13.458;2022-12-13T08:00:59;100562.00;;;-2.92;87.80
41945;BME280;63122;52.424;13.458;2022-12-13T08:03:29;100559.22;;;-2.87;87.50
41945;BME280;63122;52.424;13.458;2022-12-13T08:06:01;100557.91;;;-2.98;87.71
41945;BME280;63122;52.424;13.458;2022-12-13T08:08:32;100562.16;;;-2.76;87.84
41945;BME280;63122;52.424;13.458;2022-12-13T08:11:10;100571.06;;;-2.83;86.98
41945;BME280;63122;52.424;13.458;2022-12-13T08:13:41;100586.31;;;-2.98;87.05
41945;BME280;63122;52.424;13.458;2022-12-13T08:16:13;100572.50;;;-2.97;87.40
41945;BME280;63122;52.424;13.458;2022-12-13T08:18:56;100572.00;;;-2.84;87.17
41945;BME280;63122;52.424;13.458;2022-12-13T08:21:38;100573.53;;;-2.80;86.78
41945;BME280;63122;52.424;13.458;2022-12-13T08:24:29;100575.25;;;-2.81;86.88
41945;BME280;63122;52.424;13.458;2022-12-13T08:27:04;100572.91;;;-2.85;87.04
41945;BME280;63122;52.424;13.458;2022-12-13T08:29:38;100574.72;;;-2.87;86.98
41945;BME280;63122;52.424;13.458;2022-12-13T08:32:28;100578.63;;;-2.79;86.74
41945;BME280;63122;52.424;13.458;2022-12-13T08:34:59;100578.81;;;-2.83;86.72
41945;BME280;63122;52.424;13.458;2022-12-13T08:37:33;100585.53;;;-2.79;86.43
41945;BME280;63122;52.424;13.458;2022-12-13T08:40:05;100581.06;;;-2.76;86.57
41945;BME280;63122;52.424;13.458;2022-12-13T08:42:38;100576.59;;;-2.72;86.35
41945;BME280;63122;52.424;13.458;2022-12-13T08:45:10;100585.34;;;-2.75;86.39
41945;BME280;63122;52.424;13.458;2022-12-13T08:47:40;100586.56;;;-2.83;86.67
41945;BME280;63122;52.424;13.458;2022-12-13T08:50:10;100583.53;;;-2.72;86.68
41945;BME280;63122;52.424;13.458;2022-12-13T08:52:40;100595.44;;;-2.70;86.31
41945;BME280;63122;52.424;13.458;2022-12-13T08:55:13;100593.13;;;-2.76;86.50
41945;BME280;63122;52.424;13.458;2022-12-13T08:57:51;100601.06;;;-2.81;86.82
41945;BME280;63122;52.424;13.458;2022-12-13T09:00:22;100603.75;;;-2.82;86.67
41945;BME280;63122;52.424;13.458;2022-12-13T09:02:55;100600.97;;;-2.78;86.53
41945;BME280;63122;52.424;13.458;2022-12-13T09:05:26;100607.81;;;-2.77;86.29
41945;BME280;63122;52.424;13.458;2022-12-13T09:08:02;100595.81;;;-2.78;86.73
41945;BME280;63122;52.424;13.458;2022-12-13T09:10:57;100598.63;;;-2.84;86.54
41945;BME280;63122;52.424;13.458;2022-12-13T09:13:51;100600.97;;;-2.78;86.08
41945;BME280;63122;52.424;13.458;2022-12-13T09:16:27;100595.28;;;-2.86;86.54
41945;BME280;63122;52.424;13.458;2022-12-13T09:19:03;100600.84;;;-2.75;86.11
41945;BME280;63122;52.424;13.458;2022-12-13T09:21:51;100605.09;;;-2.73;86.13
41945;BME280;63122;52.424;13.458;2022-12-13T09:24:29;100599.38;;;-2.61;85.47
41945;BME280;63122;52.424;13.458;2022-12-13T09:27:03;100595.88;;;-2.60;85.06
41945;BME280;63122;52.424;13.458;2022-12-13T09:29:39;100599.22;;;-2.58;85.49
41945;BME280;63122;52.424;13.458;2022-12-13T09:32:09;100600.91;;;-2.57;84.97
41945;BME280;63122;52.424;13.458;2022-12-13T09:34:39;100601.63;;;-2.53;85.13
41945;BME280;63122;52.424;13.458;2022-12-13T09:37:12;100599.31;;;-2.59;84.70
41945;BME280;63122;52.424;13.458;2022-12-13T09:39:49;100600.72;;;-2.52;84.86
41945;BME280;63122;52.424;13.458;2022-12-13T09:42:23;100597.78;;;-2.64;84.58
41945;BME280;63122;52.424;13.458;2022-12-13T09:45:02;100594.28;;;-2.63;84.81
41945;BME280;63122;52.424;13.458;2022-12-13T09:47:55;100590.31;;;-2.51;84.44
41945;BME280;63122;52.424;13.458;2022-12-13T09:50:39;100587.09;;;-2.56;84.15
41945;BME280;63122;52.424;13.458;2022-12-13T09:53:24;100591.41;;;-2.56;84.31
41945;BME280;63122;52.424;13.458;2022-12-13T09:56:00;100591.56;;;-2.59;84.38
41945;BME280;63122;52.424;13.458;2022-12-13T09:58:37;100591.81;;;-2.66;84.08
41945;BME280;63122;52.424;13.458;2022-12-13T10:01:10;100590.09;;;-2.65;84.00
41945;BME280;63122;52.424;13.458;2022-12-13T10:03:51;100583.88;;;-2.61;83.91
41945;BME280;63122;52.424;13.458;2022-12-13T10:06:23;100593.25;;;-2.58;83.77
41945;BME280;63122;52.424;13.458;2022-12-13T10:08:59;100588.06;;;-2.58;83.70
41945;BME280;63122;52.424;13.458;2022-12-13T10:11:46;100591.63;;;-2.61;83.62
41945;BME280;63122;52.424;13.458;2022-12-13T10:14:22;100594.47;;;-2.67;83.61
41945;BME280;63122;52.424;13.458;2022-12-13T10:16:59;100591.41;;;-2.56;83.60
41945;BME280;63122;52.424;13.458;2022-12-13T10:19:33;100596.44;;;-2.53;83.45
41945;BME280;63122;52.424;13.458;2022-12-13T10:22:10;100589.28;;;-2.47;83.06
41945;BME280;63122;52.424;13.458;2022-12-13T10:24:50;100588.28;;;-2.44;83.12
41945;BME280;63122;52.424;13.458;2022-12-13T10:27:26;100589.69;;;-2.37;82.83
41945;BME280;63122;52.424;13.458;2022-12-13T10:30:03;100580.03;;;-2.52;82.53
41945;BME280;63122;52.424;13.458;2022-12-13T10:32:49;100579.28;;;-2.54;82.38
41945;BME280;63122;52.424;13.458;2022-12-13T10:35:23;100578.50;;;-2.56;82.43
41945;BME280;63122;52.424;13.458;2022-12-13T10:37:56;100579.41;;;-2.57;82.23
41945;BME280;63122;52.424;13.458;2022-12-13T10:40:35;100575.78;;;-2.53;81.91
41945;BME280;63122;52.424;13.458;2022-12-13T10:43:10;100567.59;;;-2.44;81.31
41945;BME280;63122;52.424;13.458;2022-12-13T10:45:42;100574.81;;;-2.51;81.46
41945;BME280;63122;52.424;13.458;2022-12-13T10:48:22;100567.59;;;-2.44;81.00
41945;BME280;63122;52.424;13.458;2022-12-13T10:50:56;100576.97;;;-2.41;81.08
41945;BME280;63122;52.424;13.458;2022-12-13T10:53:30;100570.91;;;-2.40;80.48
41945;BME280;63122;52.424;13.458;2022-12-13T10:56:02;100570.41;;;-2.49;80.29
41945;BME280;63122;52.424;13.458;2022-12-13T10:58:38;100567.84;;;-2.49;80.74
41945;BME280;63122;52.424;13.458;2022-12-13T11:01:20;100572.84;;;-2.46;80.57
41945;BME280;63122;52.424;13.458;2022-12-13T11:03:59;100569.66;;;-2.51;81.16
41945;BME280;63122;52.424;13.458;2022-12-13T11:06:40;100568.50;;;-2.45;82.03
41945;BME280;63122;52.424;13.458;2022-12-13T11:09:15;100567.25;;;-2.36;81.33
41945;BME280;63122;52.424;13.458;2022-12-13T11:11:50;100560.41;;;-2.37;81.15
41945;BME280;63122;52.424;13.458;2022-12-13T11:14:28;100559.94;;;-2.46;80.68
41945;BME280;63122;52.424;13.458;2022-12-13T11:17:08;100553.78;;;-2.43;81.11
41945;BME280;63122;52.424;13.458;2022-12-13T11:19:47;100557.69;;;-2.34;80.69
41945;BME280;63122;52.424;13.458;2022-12-13T11:22:21;100560.69;;;-2.24;80.64
41945;BME280;63122;52.424;13.458;2022-12-13T11:24:56;100564.28;;;-2.09;80.09
41945;BME280;63122;52.424;13.458;2022-12-13T11:27:48;100561.44;;;-2.22;79.92
41945;BME280;63122;52.424;13.458;2022-12-13T11:30:28;100560.53;;;-2.21;79.76
41945;BME280;63122;52.424;13.458;2022-12-13T11:33:16;100561.59;;;-2.25;79.67
41945;BME280;63122;52.424;13.458;2022-12-13T11:36:07;100557.13;;;-2.22;79.32
41945;BME280;63122;52.424;13.458;2022-12-13T11:38:58;100553.09;;;-2.10;79.34
41945;BME280;63122;52.424;13.458;2022-12-13T11:41:35;100555.94;;;-2.14;78.48
41945;BME280;63122;52.424;13.458;2022-12-13T11:44:12;100559.13;;;-2.09;78.98
41945;BME280;63122;52.424;13.458;2022-12-13T11:46:48;100559.97;;;-2.09;78.96
41945;BME280;63122;52.424;13.458;2022-12-13T11:49:29;100554.91;;;-1.93;81.44
41945;BME280;63122;52.424;13.458;2022-12-13T11:52:12;100555.03;;;-1.96;78.57
41945;BME280;63122;52.424;13.458;2022-12-13T11:54:49;100553.16;;;-1.92;78.88
41945;BME280;63122;52.424;13.458;2022-12-13T11:57:40;100550.97;;;-1.82;78.76
41945;BME280;63122;52.424;13.458;2022-12-13T12:00:28;100548.59;;;-1.87;77.05
41945;BME280;63122;52.424;13.458;2022-12-13T12:03:16;100553.69;;;-1.85;77.91
41945;BME280;63122;52.424;13.458;2022-12-13T12:05:50;100552.25;;;-1.91;77.81
41945;BME280;63122;52.424;13.458;2022-12-13T12:08:32;100554.97;;;-1.94;78.34
41945;BME280;63122;52.424;13.458;2022-12-13T12:11:11;100555.81;;;-1.94;77.51
41945;BME280;63122;52.424;13.458;2022-12-13T12:14:02;100555.44;;;-1.86;77.82
41945;BME280;63122;52.424;13.458;2022-12-13T12:16:43;100559.22;;;-1.93;77.16
41945;BME280;63122;52.424;13.458;2022-12-13T12:19:22;100558.03;;;-1.86;77.51
41945;BME280;63122;52.424;13.458;2022-12-13T12:22:26;100552.56;;;-1.80;77.87
41945;BME280;63122;52.424;13.458;2022-12-13T12:46:59;100560.34;;;-1.99;77.66
41945;BME280;63122;52.424;13.458;2022-12-13T13:12:58;100566.38;;;-1.98;77.43
41945;BME280;63122;52.424;13.458;2022-12-13T13:16:00;100574.69;;;-2.11;77.16
41945;BME280;63122;52.424;13.458;2022-12-13T13:18:49;100574.50;;;-2.06;77.58
41945;BME280;63122;52.424;13.458;2022-12-13T13:21:47;100571.84;;;-2.05;77.29
41945;BME280;63122;52.424;13.458;2022-12-13T13:24:30;100560.25;;;-2.15;77.40
41945;BME280;63122;52.424;13.458;2022-12-13T13:27:22;100565.47;;;-1.97;76.90
41945;BME280;63122;52.424;13.458;2022-12-13T13:30:14;100560.66;;;-2.05;77.28
41945;BME280;63122;52.424;13.458;2022-12-13T13:32:46;100552.59;;;-1.99;77.14
41945;BME280;63122;52.424;13.458;2022-12-13T13:41:53;100564.50;;;-2.14;76.74
41945;BME280;63122;52.424;13.458;2022-12-13T13:51:56;100570.69;;;-2.17;76.55
41945;BME280;63122;52.424;13.458;2022-12-13T13:56:01;100572.63;;;-2.03;76.26
41945;BME280;63122;52.424;13.458;2022-12-13T14:09:13;100561.50;;;-2.05;76.03
41945;BME280;63122;52.424;13.458;2022-12-13T14:22:08;100551.22;;;-2.06;76.32
41945;BME280;63122;52.424;13.458;2022-12-13T14:57:53;100564.03;;;-1.85;76.46
41945;BME280;63122;52.424;13.458;2022-12-13T15:00:29;100561.25;;;-1.81;76.86
41945;BME280;63122;52.424;13.458;2022-12-13T15:03:21;100557.50;;;-1.75;76.86
41945;BME280;63122;52.424;13.458;2022-12-13T15:05:54;100562.28;;;-2.03;77.44
41945;BME280;63122;52.424;13.458;2022-12-13T15:08:30;100554.69;;;-1.88;77.01
41945;BME280;63122;52.424;13.458;2022-12-13T15:11:08;100553.00;;;-1.89;77.09
41945;BME280;63122;52.424;13.458;2022-12-13T15:13:47;100548.84;;;-1.92;76.94
41945;BME280;63122;52.424;13.458;2022-12-13T15:16:22;100553.25;;;-1.94;77.36
41945;BME280;63122;52.424;13.458;2022-12-13T15:19:05;100550.06;;;-1.81;77.81
41945;BME280;63122;52.424;13.458;2022-12-13T15:22:03;100555.72;;;-1.92;77.60
41945;BME280;63122;52.424;13.458;2022-12-13T15:24:58;100562.38;;;-1.86;77.34
41945;BME280;63122;52.424;13.458;2022-12-13T15:27:34;100564.25;;;-1.90;77.19
41945;BME280;63122;52.424;13.458;2022-12-13T15:30:14;100565.09;;;-1.90;77.21